createdAt,value
2024-01-09T00:00:44.219Z,4.35
2024-01-09T00:03:11.747Z,3.88
2024-01-09T00:05:39.418Z,3.40
2024-01-09T00:08:07.076Z,4.78
2024-01-09T00:10:34.534Z,5.15
2024-01-09T00:13:02.002Z,4.30
2024-01-09T00:15:29.457Z,5.03
2024-01-09T00:17:57.002Z,4.97
2024-01-09T00:20:24.718Z,4.35
2024-01-09T00:22:53.404Z,5.28
2024-01-09T00:25:20.812Z,5.25
2024-01-09T00:27:48.317Z,5.93
2024-01-09T00:30:15.961Z,4.97
2024-01-09T00:32:48.496Z,5.32
2024-01-09T00:35:16.245Z,4.40
2024-01-09T00:37:44.252Z,5.00
2024-01-09T00:40:11.743Z,3.85
2024-01-09T00:42:39.174Z,4.05
2024-01-09T00:45:08.561Z,6.80
2024-01-09T00:47:36.705Z,6.63
2024-01-09T00:50:04.302Z,4.75
2024-01-09T00:52:31.819Z,4.97
2024-01-09T00:54:59.261Z,5.75
2024-01-09T00:57:27.101Z,5.68
2024-01-09T00:59:55.037Z,5.75
2024-01-09T01:02:22.749Z,6.88
2024-01-09T01:04:50.318Z,7.00
2024-01-09T01:07:17.856Z,6.97
2024-01-09T01:09:45.257Z,5.45
2024-01-09T01:12:15.068Z,5.30
2024-01-09T01:14:42.541Z,6.00
2024-01-09T01:17:10.045Z,4.47
2024-01-09T01:19:39.888Z,4.63
2024-01-09T01:22:07.343Z,3.92
2024-01-09T01:24:34.829Z,4.82
2024-01-09T01:27:02.260Z,5.18
2024-01-09T01:29:29.883Z,6.32
2024-01-09T01:31:57.320Z,5.70
2024-01-09T01:34:24.783Z,5.05
2024-01-09T01:36:52.226Z,5.35
2024-01-09T01:39:19.633Z,5.22
2024-01-09T01:41:47.112Z,5.50
2024-01-09T01:44:19.297Z,6.63
2024-01-09T01:46:47.898Z,7.30
2024-01-09T01:49:16.365Z,6.53
2024-01-09T01:51:45.048Z,7.90
2024-01-09T01:54:14.118Z,7.05
2024-01-09T01:56:45.892Z,6.50
2024-01-09T01:59:15.833Z,7.03
2024-01-09T02:01:44.931Z,4.90
2024-01-09T02:04:12.927Z,5.78
2024-01-09T02:06:40.990Z,4.38
2024-01-09T02:09:08.843Z,4.78
2024-01-09T02:11:36.294Z,5.15
2024-01-09T02:14:04.790Z,4.53
2024-01-09T02:16:32.251Z,7.20
2024-01-09T02:18:59.704Z,6.78
2024-01-09T02:21:27.163Z,6.50
2024-01-09T02:23:54.946Z,6.13
2024-01-09T02:26:39.672Z,6.07
2024-01-09T02:29:11.295Z,7.90
2024-01-09T02:31:38.764Z,7.05
2024-01-09T02:34:08.284Z,6.40
2024-01-09T02:36:35.933Z,6.82
2024-01-09T02:39:03.338Z,6.65
2024-01-09T02:41:30.768Z,5.50
2024-01-09T02:43:58.406Z,5.57
2024-01-09T02:46:25.841Z,5.70
2024-01-09T02:48:53.467Z,4.80
2024-01-09T02:51:20.930Z,5.55
2024-01-09T02:53:49.373Z,5.70
2024-01-09T02:56:16.849Z,3.80
2024-01-09T02:58:44.327Z,5.07
2024-01-09T03:01:12.362Z,4.80
2024-01-09T03:03:39.895Z,5.57
2024-01-09T03:06:07.589Z,3.75
2024-01-09T03:08:35.108Z,4.68
2024-01-09T03:11:02.615Z,6.72
2024-01-09T03:13:30.129Z,10.15
2024-01-09T03:15:57.531Z,7.38
2024-01-09T03:18:25.747Z,8.00
2024-01-09T03:20:53.346Z,10.43
2024-01-09T03:23:20.780Z,7.82
2024-01-09T03:25:48.179Z,7.32
2024-01-09T03:28:15.680Z,7.25
2024-01-09T03:30:43.141Z,5.07
2024-01-09T03:33:10.944Z,4.35
2024-01-09T03:35:38.572Z,6.38
2024-01-09T03:38:06.041Z,5.88
2024-01-09T03:40:33.556Z,7.75
2024-01-09T03:43:01.216Z,5.55
2024-01-09T03:45:28.648Z,7.13
2024-01-09T03:47:56.204Z,5.97
2024-01-09T03:50:24.195Z,5.75
2024-01-09T03:52:51.689Z,6.75
2024-01-09T03:55:19.088Z,4.88
2024-01-09T03:57:46.520Z,5.55
2024-01-09T04:00:15.619Z,5.43
2024-01-09T04:02:43.057Z,5.25
2024-01-09T04:05:10.531Z,5.25
2024-01-09T04:07:37.974Z,6.93
2024-01-09T04:10:05.717Z,6.20
2024-01-09T04:12:33.182Z,6.78
2024-01-09T04:15:00.809Z,6.55
2024-01-09T04:17:29.412Z,7.35
2024-01-09T04:19:57.037Z,8.52
2024-01-09T04:22:24.509Z,7.95
2024-01-09T04:24:52.023Z,6.30
2024-01-09T04:27:19.453Z,6.60
2024-01-09T04:29:47.304Z,5.50
2024-01-09T04:32:14.808Z,5.35
2024-01-09T04:34:42.337Z,6.22
2024-01-09T04:37:09.707Z,5.43
2024-01-09T04:39:37.151Z,5.07
2024-01-09T04:42:04.482Z,2.47
2024-01-09T04:44:32.053Z,6.32
2024-01-09T04:46:59.528Z,5.82
2024-01-09T04:49:27.259Z,7.25
2024-01-09T04:51:54.706Z,5.85
2024-01-09T04:54:22.130Z,12.38
2024-01-09T04:56:49.691Z,6.97
2024-01-09T04:59:17.823Z,5.32
2024-01-09T05:01:52.749Z,5.15
2024-01-09T05:04:20.217Z,4.80
2024-01-09T05:06:47.758Z,5.55
2024-01-09T05:09:15.279Z,5.47
2024-01-09T05:11:42.777Z,7.50
2024-01-09T05:14:10.285Z,6.93
2024-01-09T05:16:37.734Z,11.00
2024-01-09T05:19:05.244Z,8.82
2024-01-09T05:21:32.751Z,7.85
2024-01-09T05:24:00.196Z,5.20
2024-01-09T05:26:27.723Z,11.00
2024-01-09T05:28:55.187Z,10.85
2024-01-09T05:31:22.838Z,9.00
2024-01-09T05:33:50.410Z,5.53
2024-01-09T05:36:23.371Z,5.38
2024-01-09T05:38:54.206Z,5.57
2024-01-09T05:41:25.146Z,6.32
2024-01-09T05:43:52.828Z,5.43
2024-01-09T05:46:20.337Z,6.15
2024-01-09T05:48:50.332Z,6.63
2024-01-09T05:53:51.218Z,5.38
2024-01-09T05:56:19.173Z,4.45
2024-01-09T05:58:48.374Z,6.88
2024-01-09T06:01:15.937Z,6.20
2024-01-09T06:03:43.455Z,10.45
2024-01-09T06:06:11.170Z,10.50
2024-01-09T06:08:39.005Z,9.80
2024-01-09T06:11:06.725Z,7.20
2024-01-09T06:13:34.140Z,11.40
2024-01-09T06:16:01.590Z,10.10
2024-01-09T06:18:29.063Z,7.72
2024-01-09T06:20:56.631Z,9.48
2024-01-09T06:23:24.132Z,10.15
2024-01-09T06:25:51.800Z,8.02
2024-01-09T06:28:19.287Z,5.95
2024-01-09T06:30:46.778Z,8.55
2024-01-09T06:33:14.458Z,6.32
2024-01-09T06:35:42.078Z,7.60
2024-01-09T06:38:09.864Z,16.55
2024-01-09T06:40:37.318Z,11.65
2024-01-09T06:43:04.978Z,18.77
2024-01-09T06:45:38.659Z,9.07
2024-01-09T06:48:06.434Z,7.85
2024-01-09T06:50:38.417Z,13.25
2024-01-09T06:53:06.330Z,9.98
2024-01-09T06:55:34.040Z,6.10
2024-01-09T06:58:01.514Z,10.20
2024-01-09T07:00:29.112Z,12.18
2024-01-09T07:02:56.690Z,6.45
2024-01-09T07:05:24.341Z,7.40
2024-01-09T07:07:52.050Z,7.20
2024-01-09T07:10:19.830Z,8.60
2024-01-09T07:12:47.358Z,4.95
2024-01-09T07:15:16.882Z,6.13
2024-01-09T07:20:13.494Z,7.82
2024-01-09T07:22:43.066Z,7.07
2024-01-09T07:25:12.108Z,5.15
2024-01-09T07:27:39.551Z,7.78
2024-01-09T07:30:07.350Z,5.43
2024-01-09T07:32:34.859Z,8.57
2024-01-09T07:35:02.358Z,12.60
2024-01-09T07:37:29.821Z,13.63
2024-01-09T07:39:57.333Z,9.77
2024-01-09T07:42:24.764Z,13.50
2024-01-09T07:44:52.270Z,9.32
2024-01-09T07:47:19.799Z,13.18
2024-01-09T07:49:47.390Z,9.13
2024-01-09T07:52:14.970Z,7.18
2024-01-09T07:54:43.114Z,7.07
2024-01-09T07:57:21.515Z,9.07
2024-01-09T07:59:50.795Z,5.72
2024-01-09T08:02:18.411Z,6.28
2024-01-09T08:04:45.925Z,3.22
2024-01-09T08:07:13.509Z,7.05
2024-01-09T08:09:40.901Z,7.35
2024-01-09T08:12:08.317Z,7.85
2024-01-09T08:14:35.569Z,7.03
2024-01-09T08:17:03.035Z,4.68
2024-01-09T08:19:30.525Z,6.28
2024-01-09T08:21:58.073Z,4.82
2024-01-09T08:24:25.488Z,2.25
2024-01-09T08:26:52.955Z,4.47
2024-01-09T08:29:20.451Z,8.40
2024-01-09T08:31:48.542Z,6.40
2024-01-09T08:34:16.816Z,6.05
2024-01-09T08:36:46.349Z,8.30
2024-01-09T08:39:17.145Z,3.58
2024-01-09T08:41:44.628Z,5.18
2024-01-09T08:44:12.313Z,4.80
2024-01-09T08:46:39.793Z,6.85
2024-01-09T08:49:07.423Z,6.68
2024-01-09T08:51:34.667Z,8.40
2024-01-09T08:54:02.198Z,8.85
2024-01-09T08:56:32.186Z,6.75
2024-01-09T08:59:00.220Z,8.25
2024-01-09T09:01:30.320Z,11.52
2024-01-09T09:03:57.843Z,8.25
2024-01-09T09:06:25.606Z,6.93
2024-01-09T09:08:53.100Z,2.17
2024-01-09T09:11:20.640Z,7.72
2024-01-09T09:13:48.243Z,7.32
2024-01-09T09:16:17.147Z,6.40
2024-01-09T09:18:46.194Z,4.40
2024-01-09T09:21:14.602Z,7.13
2024-01-09T09:23:46.093Z,10.18
2024-01-09T09:26:13.781Z,6.18
2024-01-09T09:28:55.179Z,8.85
2024-01-09T09:31:30.486Z,8.00
2024-01-09T09:33:58.130Z,4.35
2024-01-09T09:36:26.083Z,7.82
2024-01-09T09:38:55.029Z,7.20
2024-01-09T09:41:23.002Z,5.80
2024-01-09T09:43:53.734Z,6.88
2024-01-09T09:46:28.297Z,4.32
2024-01-09T09:48:57.035Z,5.28
2024-01-09T09:51:27.113Z,3.83
2024-01-09T09:53:55.769Z,5.85
2024-01-09T09:56:24.192Z,5.15
2024-01-09T09:58:53.333Z,1.85
2024-01-09T10:01:21.557Z,6.28
2024-01-09T10:03:58.729Z,5.43
2024-01-09T10:06:28.351Z,4.60
2024-01-09T10:08:56.530Z,9.10
2024-01-09T10:11:24.760Z,6.72
2024-01-09T10:13:52.803Z,8.63
2024-01-09T10:16:20.477Z,6.40
2024-01-09T10:18:48.648Z,7.97
2024-01-09T10:21:15.971Z,6.53
2024-01-09T10:23:44.100Z,8.10
2024-01-09T10:26:12.877Z,7.35
2024-01-09T10:28:40.447Z,6.38
2024-01-09T10:31:09.037Z,5.63
2024-01-09T10:33:41.462Z,5.47
2024-01-09T10:36:09.901Z,2.92
2024-01-09T10:38:38.808Z,4.78
2024-01-09T10:41:17.562Z,2.78
2024-01-09T10:43:49.013Z,4.50
2024-01-09T10:46:17.685Z,7.82
2024-01-09T10:48:46.222Z,5.20
2024-01-09T10:51:14.538Z,7.82
2024-01-09T10:53:43.472Z,3.00
2024-01-09T10:56:11.339Z,7.70
2024-01-09T10:58:44.401Z,17.75
2024-01-09T11:01:15.301Z,7.22
2024-01-09T11:03:44.670Z,42.75
2024-01-09T11:06:13.313Z,24.23
2024-01-09T11:08:44.451Z,10.02
2024-01-09T11:11:14.587Z,10.45
2024-01-09T11:16:12.992Z,2.67
2024-01-09T11:18:41.968Z,16.33
2024-01-09T11:21:11.168Z,15.18
2024-01-09T11:23:46.719Z,16.05
2024-01-09T11:26:14.712Z,13.25
2024-01-09T11:28:44.439Z,18.65
2024-01-09T11:31:18.410Z,6.53
2024-01-09T11:33:46.405Z,8.02
2024-01-09T11:36:14.217Z,17.75
2024-01-09T11:38:41.757Z,17.30
2024-01-09T11:41:12.738Z,5.68
2024-01-09T11:44:16.899Z,20.23
2024-01-09T11:46:44.953Z,7.88
2024-01-09T11:49:12.987Z,20.63
2024-01-09T11:51:40.588Z,14.80
2024-01-09T11:54:10.893Z,11.15
2024-01-09T11:56:38.992Z,8.00
2024-01-09T11:59:06.517Z,15.77
2024-01-09T12:01:35.169Z,5.72
2024-01-09T12:04:03.080Z,4.95
2024-01-09T12:06:36.503Z,3.30
2024-01-09T12:09:04.223Z,4.05
2024-01-09T12:11:38.541Z,8.35
2024-01-09T12:14:09.216Z,3.55
2024-01-09T12:16:36.648Z,3.35
2024-01-09T12:19:06.367Z,7.65
2024-01-09T12:21:36.346Z,5.68
2024-01-09T12:24:20.701Z,4.60
2024-01-09T12:26:52.629Z,2.92
2024-01-09T12:29:20.245Z,7.00
2024-01-09T12:31:47.772Z,5.55
2024-01-09T12:34:16.349Z,8.48
2024-01-09T12:36:43.910Z,8.70
2024-01-09T12:39:14.222Z,6.60
2024-01-09T12:41:42.375Z,6.60
2024-01-09T12:44:10.899Z,6.50
2024-01-09T12:46:38.358Z,4.82
2024-01-09T12:49:06.745Z,5.63
2024-01-09T12:51:34.342Z,9.05
2024-01-09T12:54:01.966Z,4.22
2024-01-09T12:56:29.949Z,11.38
2024-01-09T12:58:58.069Z,10.38
2024-01-09T13:01:30.905Z,7.18
2024-01-09T13:04:00.614Z,11.27
2024-01-09T13:06:28.562Z,8.13
2024-01-09T13:08:56.422Z,3.50
2024-01-09T13:11:24.159Z,5.72
2024-01-09T13:13:51.844Z,8.25
2024-01-09T13:16:19.591Z,7.78
2024-01-09T13:18:49.226Z,6.75
2024-01-09T13:21:17.006Z,2.47
2024-01-09T13:23:50.146Z,2.97
2024-01-09T13:26:20.219Z,2.53
2024-01-09T13:30:43.393Z,5.47
2024-01-09T13:31:36.194Z,6.28
2024-01-09T13:34:05.271Z,2.35
2024-01-09T13:36:32.971Z,2.95
2024-01-09T13:39:00.583Z,1.60
2024-01-09T13:41:29.193Z,2.67
2024-01-09T13:43:58.351Z,1.98
2024-01-09T13:46:26.022Z,4.80
2024-01-09T13:48:56.512Z,4.25
2024-01-09T13:51:50.040Z,1.95
2024-01-09T13:54:13.275Z,6.72
2024-01-09T13:56:40.730Z,1.92
2024-01-09T13:59:09.189Z,5.13
2024-01-09T14:01:40.704Z,1.63
2024-01-09T14:04:18.587Z,2.25
2024-01-09T14:06:48.252Z,4.03
2024-01-09T14:09:15.988Z,5.32
2024-01-09T14:11:43.925Z,1.65
2024-01-09T14:14:11.957Z,4.22
2024-01-09T14:16:40.397Z,3.63
2024-01-09T14:19:10.538Z,3.28
2024-01-09T14:21:38.519Z,2.67
2024-01-09T14:24:06.045Z,3.42
2024-01-09T14:26:33.442Z,2.10
2024-01-09T14:29:00.936Z,5.43
2024-01-09T14:31:28.403Z,2.63
2024-01-09T14:33:55.951Z,6.38
2024-01-09T14:36:23.526Z,2.45
2024-01-09T14:38:50.925Z,1.67
2024-01-09T14:41:19.239Z,1.92
2024-01-09T14:43:46.801Z,3.30
2024-01-09T14:46:17.029Z,2.08
2024-01-09T14:48:44.235Z,2.17
2024-01-09T14:51:11.480Z,7.43
2024-01-09T14:53:38.848Z,7.35
2024-01-09T14:56:06.645Z,7.03
2024-01-09T14:58:34.544Z,1.27
2024-01-09T15:01:03.472Z,5.10
2024-01-09T15:03:30.987Z,1.13
2024-01-09T15:05:58.490Z,4.20
2024-01-09T15:08:26.060Z,5.80
2024-01-09T15:10:53.650Z,6.97
2024-01-09T15:13:21.448Z,2.42
2024-01-09T15:15:49.200Z,1.80
2024-01-09T15:18:16.799Z,4.35
2024-01-09T15:20:44.109Z,2.30
2024-01-09T15:23:13.734Z,3.42
2024-01-09T15:25:41.604Z,2.63
2024-01-09T15:28:09.673Z,5.57
2024-01-09T15:30:37.198Z,1.95
2024-01-09T15:33:09.302Z,5.57
2024-01-09T15:35:37.501Z,5.45
2024-01-09T15:38:05.467Z,5.22
2024-01-09T15:40:37.234Z,5.05
2024-01-09T15:43:07.161Z,7.72
2024-01-09T15:45:34.625Z,5.03
2024-01-09T15:48:02.263Z,1.80
2024-01-09T15:50:29.847Z,1.80
2024-01-09T15:52:57.503Z,1.50
2024-01-09T15:55:25.100Z,2.20
2024-01-09T15:57:52.557Z,2.50
2024-01-09T16:00:21.004Z,1.50
2024-01-09T16:02:48.578Z,1.67
2024-01-09T16:05:16.193Z,0.80
2024-01-09T16:07:44.087Z,2.13
2024-01-09T16:10:11.619Z,2.72
2024-01-09T16:12:42.619Z,2.20
2024-01-09T16:15:10.942Z,0.52
2024-01-09T16:17:38.430Z,3.38
2024-01-09T16:20:06.388Z,2.63
2024-01-09T16:22:33.932Z,4.93
2024-01-09T16:25:01.010Z,1.55
2024-01-09T16:27:28.119Z,2.10
2024-01-09T16:29:55.549Z,1.85
2024-01-09T16:32:23.248Z,0.70
2024-01-09T16:34:50.807Z,3.97
2024-01-09T16:37:18.307Z,4.63
2024-01-09T16:39:45.677Z,1.33
2024-01-09T16:42:13.132Z,4.18
2024-01-09T16:44:40.520Z,0.77
2024-01-09T16:47:08.236Z,6.47
2024-01-09T16:49:35.820Z,0.80
2024-01-09T16:52:04.563Z,0.55
2024-01-09T16:54:31.642Z,2.15
2024-01-09T16:56:59.105Z,2.45
2024-01-09T16:59:26.647Z,3.50
2024-01-09T17:01:54.868Z,5.30
2024-01-09T17:04:23.669Z,0.50
2024-01-09T17:06:51.141Z,0.82
2024-01-09T17:09:18.670Z,2.35
2024-01-09T17:11:46.115Z,1.02
2024-01-09T17:14:13.724Z,0.95
2024-01-09T17:16:45.750Z,3.28
2024-01-09T17:19:13.928Z,1.27
2024-01-09T17:21:41.454Z,4.10
2024-01-09T17:24:08.890Z,0.50
2024-01-09T17:26:36.497Z,3.55
2024-01-09T17:29:05.230Z,1.35
2024-01-09T17:31:33.557Z,2.17
2024-01-09T17:34:02.838Z,1.42
2024-01-09T17:36:30.342Z,1.52
2024-01-09T17:38:57.830Z,1.63
2024-01-09T17:41:25.513Z,0.75
2024-01-09T17:43:54.052Z,2.17
2024-01-09T17:46:21.571Z,1.65
2024-01-09T17:48:49.235Z,1.00
2024-01-09T17:51:16.681Z,0.73
2024-01-09T17:53:44.073Z,2.38
2024-01-09T17:56:11.572Z,0.60
2024-01-09T17:58:40.069Z,1.20
2024-01-09T18:01:09.232Z,0.30
2024-01-09T18:03:36.822Z,0.63
2024-01-09T18:06:04.530Z,0.60
2024-01-09T18:08:31.992Z,0.70
2024-01-09T18:11:03.111Z,0.43
2024-01-09T18:13:31.177Z,0.80
2024-01-09T18:15:58.647Z,0.20
2024-01-09T18:18:30.230Z,0.73
2024-01-09T18:20:57.667Z,0.80
2024-01-09T18:23:25.117Z,1.02
2024-01-09T18:25:52.754Z,0.65
2024-01-09T18:28:28.652Z,0.85
2024-01-09T18:30:57.812Z,0.55
2024-01-09T18:33:25.434Z,0.70
2024-01-09T18:35:54.643Z,0.93
2024-01-09T18:38:22.258Z,0.43
2024-01-09T18:40:49.818Z,0.77
2024-01-09T18:43:18.233Z,0.40
2024-01-09T18:45:45.943Z,0.55
2024-01-09T18:48:15.624Z,0.95
2024-01-09T18:50:46.021Z,0.52
2024-01-09T18:53:17.387Z,0.68
2024-01-09T18:55:45.329Z,0.65
2024-01-09T18:58:13.277Z,0.28
2024-01-09T19:00:41.252Z,0.52
2024-01-09T19:03:10.222Z,0.50
2024-01-09T19:05:38.376Z,0.50
2024-01-09T19:08:06.158Z,0.60
2024-01-09T19:10:33.913Z,0.60
2024-01-09T19:13:01.417Z,0.40
2024-01-09T19:15:28.800Z,0.60
2024-01-09T19:17:56.461Z,0.50
2024-01-09T19:20:24.470Z,0.35
2024-01-09T19:22:57.434Z,0.17
2024-01-09T19:25:25.857Z,0.40
2024-01-09T19:27:53.594Z,0.52
2024-01-09T19:30:21.677Z,1.00
2024-01-09T19:32:49.674Z,0.47
2024-01-09T19:35:17.300Z,0.25
2024-01-09T19:37:45.473Z,0.50
2024-01-09T19:40:13.184Z,0.25
2024-01-09T19:42:40.729Z,0.50
2024-01-09T19:45:08.654Z,0.77
2024-01-09T19:47:36.106Z,0.28
2024-01-09T19:50:03.666Z,0.35
2024-01-09T19:52:31.959Z,0.45
2024-01-09T19:55:00.177Z,1.27
2024-01-09T19:57:29.788Z,0.52
2024-01-09T19:59:58.077Z,0.47
2024-01-09T20:02:25.617Z,0.70
2024-01-09T20:04:53.617Z,0.60
2024-01-09T20:07:21.588Z,0.85
2024-01-09T20:09:50.478Z,0.30
2024-01-09T20:12:17.882Z,0.15
2024-01-09T20:14:45.117Z,0.40
2024-01-09T20:17:12.564Z,0.47
2024-01-09T20:19:44.005Z,0.52
2024-01-09T20:22:15.130Z,0.20
2024-01-09T20:24:50.545Z,0.20
2024-01-09T20:27:18.099Z,0.63
2024-01-09T20:29:45.665Z,1.40
2024-01-09T20:32:13.227Z,0.60
2024-01-09T20:34:41.411Z,0.60
2024-01-09T20:37:08.876Z,0.22
2024-01-09T20:39:36.280Z,0.30
2024-01-09T20:42:05.861Z,0.55
2024-01-09T20:44:33.462Z,0.50
2024-01-09T20:47:00.940Z,0.22
2024-01-09T20:49:28.534Z,0.32
2024-01-09T20:51:56.146Z,0.30
2024-01-09T20:54:24.388Z,1.60
2024-01-09T20:56:51.974Z,1.30
2024-01-09T20:59:20.649Z,0.20
2024-01-09T21:01:48.124Z,0.88
2024-01-09T21:04:15.659Z,0.35
2024-01-09T21:06:47.190Z,0.43
2024-01-09T21:09:15.275Z,0.35
2024-01-09T21:11:44.372Z,0.70
2024-01-09T21:14:11.915Z,0.30
2024-01-09T21:16:39.570Z,0.52
2024-01-09T21:19:07.322Z,0.30
2024-01-09T21:21:34.834Z,0.10
2024-01-09T21:24:03.531Z,0.20
2024-01-09T21:26:31.094Z,0.40
2024-01-09T21:28:58.642Z,0.52
2024-01-09T21:31:26.168Z,0.40
2024-01-09T21:33:54.010Z,0.30
2024-01-09T21:36:21.472Z,0.13
2024-01-09T21:38:49.172Z,0.13
2024-01-09T21:41:16.805Z,0.47
2024-01-09T21:43:44.260Z,0.30
2024-01-09T21:46:13.833Z,0.55
2024-01-09T21:48:41.603Z,0.68
2024-01-09T21:51:09.197Z,0.40
2024-01-09T21:53:36.611Z,0.47
2024-01-09T21:56:04.126Z,0.13
2024-01-09T21:58:32.121Z,0.30
2024-01-09T22:01:00.975Z,0.73
2024-01-09T22:03:28.878Z,0.38
2024-01-09T22:05:56.542Z,0.30
2024-01-09T22:08:23.987Z,0.35
2024-01-09T22:10:53.124Z,0.20
2024-01-09T22:13:20.562Z,0.47
2024-01-09T22:15:48.327Z,0.50
2024-01-09T22:18:16.217Z,0.40
2024-01-09T22:20:43.894Z,0.32
2024-01-09T22:23:11.397Z,0.40
2024-01-09T22:25:39.115Z,0.55
2024-01-09T22:28:06.815Z,0.60
2024-01-09T22:30:34.332Z,0.10
2024-01-09T22:33:02.645Z,0.20
2024-01-09T22:35:30.209Z,0.15
2024-01-09T22:37:57.639Z,0.65
2024-01-09T22:40:25.357Z,0.20
2024-01-09T22:42:52.774Z,0.47
2024-01-09T22:45:20.150Z,0.32
2024-01-09T22:47:47.636Z,0.20
2024-01-09T22:50:15.162Z,0.28
2024-01-09T22:52:42.666Z,0.50
2024-01-09T22:55:10.423Z,0.45
2024-01-09T22:57:38.286Z,0.25
2024-01-09T23:00:20.972Z,0.30
2024-01-09T23:02:48.671Z,0.32
2024-01-09T23:05:19.477Z,0.40
2024-01-09T23:07:47.500Z,0.30
2024-01-09T23:10:14.985Z,0.40
2024-01-09T23:12:42.426Z,0.20
2024-01-09T23:15:10.428Z,0.30
2024-01-09T23:17:38.265Z,0.22
2024-01-09T23:20:06.350Z,0.20
2024-01-09T23:22:36.798Z,0.28
2024-01-09T23:25:07.509Z,0.30
2024-01-09T23:27:35.104Z,0.30
2024-01-09T23:30:02.548Z,0.30
2024-01-09T23:32:30.277Z,0.30
2024-01-09T23:35:01.945Z,0.30
2024-01-09T23:37:32.550Z,0.30
2024-01-09T23:40:00.126Z,0.45
2024-01-09T23:42:27.901Z,0.20
2024-01-09T23:44:56.427Z,0.70
2024-01-09T23:47:24.072Z,0.28
2024-01-09T23:49:51.603Z,0.28
2024-01-09T23:52:19.123Z,0.30
2024-01-09T23:54:48.125Z,0.30
2024-01-09T23:57:16.101Z,0.75
2024-01-09T23:59:44.772Z,0.17
